Time;durP1;ratioP1;P1;durP2;ratioP2;P2;SDS_P1;SDS_P2;PMS_P1;PMS_P2;Temp;Humidity;BMP_temperature;BMP_pressure;BME280_temperature;BME280_humidity;BME280_pressure;Samples;Min_cycle;Max_cycle;Signal;HPM_P1;HPM_P2
2023/08/26 00:00:29;;;;;;;10.35;6.43;;;;;;;25.47;60.34;99972.00;41615964;28;20052;-73
2023/08/26 00:20:29;;;;;;;9.80;5.93;;;;;;;25.27;60.84;99931.63;41588190;28;20072;-72
2023/08/26 00:40:35;;;;;;;9.55;5.90;;;;;;;25.22;61.32;99949.81;41584994;28;20049;-74
2023/08/26 01:00:36;;;;;;;8.05;5.57;;;;;;;24.97;61.53;99927.63;41565489;28;20053;-73
2023/08/26 01:20:37;;;;;;;11.27;5.80;;;;;;;24.82;61.68;99932.66;41557060;28;20053;-73
2023/08/26 01:40:43;;;;;;;11.82;6.60;;;;;;;24.93;61.85;99953.59;41565196;28;20061;-71
2023/08/26 02:00:43;;;;;;;9.02;6.07;;;;;;;24.80;61.46;99886.94;41577117;28;20100;-73
2023/08/26 02:20:44;;;;;;;11.30;5.68;;;;;;;24.84;62.92;99931.50;41567401;28;20841;-75
2023/08/26 02:40:54;;;;;;;9.55;5.70;;;;;;;24.55;63.44;99934.38;41568442;28;20052;-74
2023/08/26 03:01:00;;;;;;;11.38;5.68;;;;;;;24.50;63.03;99920.75;41538346;28;20041;-73
2023/08/26 03:21:04;;;;;;;11.20;5.63;;;;;;;24.34;63.42;99903.78;41536912;28;20064;-72
2023/08/26 03:41:05;;;;;;;9.98;5.90;;;;;;;24.36;63.47;99922.13;41544178;28;20042;-70
2023/08/26 04:01:06;;;;;;;9.30;5.78;;;;;;;24.16;63.23;99885.25;41529800;28;20034;-70
2023/08/26 04:21:06;;;;;;;8.70;5.68;;;;;;;24.42;63.00;99940.06;41552644;28;20053;-71
2023/08/26 04:41:06;;;;;;;15.65;6.22;;;;;;;24.27;63.59;99943.22;41584001;28;20401;-72
2023/08/26 05:01:07;;;;;;;10.85;5.68;;;;;;;24.67;62.23;99949.09;41581348;28;20042;-70
2023/08/26 05:21:07;;;;;;;12.43;5.70;;;;;;;24.09;61.98;99855.91;41582846;28;20188;-72
2023/08/26 05:41:08;;;;;;;10.57;5.72;;;;;;;24.73;61.26;99944.97;41614121;28;20071;-71
2023/08/26 06:01:08;;;;;;;9.65;6.30;;;;;;;25.08;58.88;99956.50;41526757;28;20038;-72
2023/08/26 06:21:08;;;;;;;10.77;5.65;;;;;;;25.40;57.72;99968.31;41539626;28;20072;-72
2023/08/26 06:41:09;;;;;;;14.32;6.20;;;;;;;25.77;56.40;99975.13;41554106;28;20042;-74
2023/08/26 07:01:10;;;;;;;8.95;6.38;;;;;;;26.13;54.49;99961.69;41549367;28;20057;-74
2023/08/26 07:21:10;;;;;;;12.23;6.70;;;;;;;26.58;53.99;99986.16;41566994;28;20073;-73
2023/08/26 07:41:10;;;;;;;11.65;6.90;;;;;;;26.50;53.43;99925.06;41525115;28;20022;-81
2023/08/26 08:01:13;;;;;;;14.70;7.43;;;;;;;27.00;52.89;99936.53;41515653;28;20497;-77
2023/08/26 08:21:14;;;;;;;13.57;7.70;;;;;;;27.37;50.89;99950.25;41624080;28;20472;-77
2023/08/26 08:41:14;;;;;;;9.45;7.70;;;;;;;27.40;51.70;99905.53;41587726;28;20041;-77
2023/08/26 09:01:18;;;;;;;16.33;8.85;;;;;;;27.76;50.63;99913.06;41606286;28;20080;-78
2023/08/26 09:21:18;;;;;;;14.60;8.10;;;;;;;28.43;48.20;99887.69;41594287;28;20033;-78
2023/08/26 09:41:23;;;;;;;12.80;8.75;;;;;;;28.50;48.70;99882.47;41562745;28;20038;-75
2023/08/26 10:01:25;;;;;;;12.73;8.15;;;;;;;28.21;47.56;99785.56;41610492;28;20037;-76
2023/08/26 10:21:33;;;;;;;11.38;8.07;;;;;;;28.57;48.78;99875.41;41595876;28;20045;-76
2023/08/26 10:41:33;;;;;;;11.70;6.57;;;;;;;28.84;46.46;99837.75;41631204;28;20079;-71
2023/08/26 11:01:35;;;;;;;15.87;7.87;;;;;;;29.20;47.13;99831.69;41624678;28;20041;-74
2023/08/26 11:21:37;;;;;;;12.45;7.72;;;;;;;29.43;45.24;99810.25;41649360;28;20044;-73
2023/08/26 11:41:39;;;;;;;13.20;6.53;;;;;;;29.87;43.39;99776.41;41664255;28;20037;-74
2023/08/26 12:01:39;;;;;;;12.60;7.95;;;;;;;29.75;46.48;99797.44;41653010;28;20050;-72
2023/08/26 12:21:39;;;;;;;10.87;6.67;;;;;;;28.70;44.06;99583.66;41644220;28;20124;-73
2023/08/26 12:41:40;;;;;;;7.95;6.10;;;;;;;28.43;43.87;99559.38;41675776;28;20041;-74
2023/08/26 13:01:40;;;;;;;9.32;6.03;;;;;;;29.67;43.45;99730.84;41669321;28;20048;-73
2023/08/26 13:21:41;;;;;;;9.57;6.13;;;;;;;29.08;43.76;99624.22;41665404;28;20407;-74
2023/08/26 13:41:41;;;;;;;;;;;;;;;29.95;44.45;99736.25;41615257;28;20512;-73
2023/08/26 14:01:42;;;;;;;9.37;6.17;;;;;;;29.79;46.51;99721.31;41607230;28;20365;-73
2023/08/26 14:21:42;;;;;;;;;;;;;;;29.90;46.71;99712.00;41575027;28;20101;-75
2023/08/26 14:41:42;;;;;;;8.30;5.97;;;;;;;29.81;46.46;99707.78;41570910;28;19982;-71
2023/08/26 15:01:43;;;;;;;12.23;5.75;;;;;;;29.65;46.15;99682.19;41577194;28;20092;-71
2023/08/26 15:21:44;;;;;;;;;;;;;;;29.66;46.61;99692.69;41555928;28;20090;-73
2023/08/26 15:41:44;;;;;;;9.23;5.47;;;;;;;29.57;46.83;99680.50;41577434;28;20364;-74
2023/08/26 16:01:45;;;;;;;7.13;5.10;;;;;;;29.48;47.17;99681.63;41586284;28;20044;-72
2023/08/26 16:21:45;;;;;;;8.90;5.33;;;;;;;29.32;47.36;99626.72;41601334;28;20384;-72
2023/08/26 16:41:46;;;;;;;7.20;4.90;;;;;;;29.23;48.46;99624.16;41614344;28;20042;-74
2023/08/26 17:01:48;;;;;;;7.00;4.90;;;;;;;29.19;48.62;99606.06;41600355;28;20045;-72
2023/08/26 17:21:49;;;;;;;7.25;4.80;;;;;;;29.00;48.46;99560.41;41601636;28;20105;-75
2023/08/26 17:41:50;;;;;;;6.13;4.97;;;;;;;28.96;46.93;99591.09;41593882;28;20052;-72
2023/08/26 18:01:50;;;;;;;7.70;5.00;;;;;;;29.07;46.08;99638.56;41581045;28;20045;-72
2023/08/26 18:21:51;;;;;;;6.32;4.90;;;;;;;29.42;48.25;99655.72;41510510;28;20467;-75
2023/08/26 18:41:51;;;;;;;6.67;5.10;;;;;;;29.60;47.42;99671.28;41546058;28;20095;-75
2023/08/26 19:01:52;;;;;;;13.03;6.00;;;;;;;29.61;45.08;99691.59;41583357;28;20052;-76
2023/08/26 19:21:52;;;;;;;11.10;6.00;;;;;;;29.64;45.54;99701.91;41583500;28;20286;-77
2023/08/26 19:41:53;;;;;;;9.70;6.47;;;;;;;29.35;45.92;99685.00;41547174;28;20115;-81
2023/08/26 20:01:53;;;;;;;16.20;6.03;;;;;;;29.28;45.28;99684.09;41518127;28;20108;-80
2023/08/26 20:21:54;;;;;;;9.83;4.87;;;;;;;29.22;43.05;99667.00;41580292;28;20078;-80
2023/08/26 20:41:55;;;;;;;8.65;4.03;;;;;;;28.97;41.60;99634.56;41632719;28;20485;-78
2023/08/26 21:01:55;;;;;;;15.10;5.17;;;;;;;28.85;42.68;99675.00;41602750;28;20120;-78
2023/08/26 21:21:56;;;;;;;9.23;5.33;;;;;;;28.42;44.09;99669.53;41623152;28;20026;-78
2023/08/26 21:41:56;;;;;;;10.00;5.57;;;;;;;28.22;44.86;99677.22;41598941;28;20413;-80
2023/08/26 22:01:57;;;;;;;10.60;5.30;;;;;;;27.71;45.29;99656.56;41618863;28;20133;-78
2023/08/26 22:21:57;;;;;;;12.75;5.10;;;;;;;27.66;45.95;99680.22;41596176;28;20144;-78
2023/08/26 22:41:57;;;;;;;8.02;4.78;;;;;;;27.56;46.34;99676.00;41585005;28;20128;-77
2023/08/26 23:01:59;;;;;;;11.52;4.60;;;;;;;27.38;46.61;99659.47;41578557;28;20053;-78
2023/08/26 23:21:59;;;;;;;11.05;4.95;;;;;;;27.20;47.00;99633.22;41550328;28;20042;-79
2023/08/26 23:42:00;;;;;;;10.45;4.97;;;;;;;27.15;47.20;99618.59;41542285;28;20045;-81
